Time;durP1;ratioP1;P1;durP2;ratioP2;P2;SDS_P1;SDS_P2;PMS_P1;PMS_P2;Temp;Humidity;BMP_temperature;BMP_pressure;BME280_temperature;BME280_humidity;BME280_pressure;Samples;Min_cycle;Max_cycle;Signal;HPM_P1;HPM_P2
2022/09/26 00:01:21;;;;;;;;;;;;;;;17.60;49.72;100729.94;5014332;28;1141;-49
2022/09/26 00:03:48;;;;;;;;;;;;;;;17.35;48.79;100726.19;4999345;28;1014;-47
2022/09/26 00:06:16;;;;;;;;;;;;;;;17.18;47.88;100722.94;5016585;28;1140;-47
2022/09/26 00:08:42;;;;;;;;;;;;;;;18.20;48.79;100723.59;5009448;28;1192;-47
2022/09/26 00:11:08;;;;;;;;;;;;;;;17.69;49.24;100717.25;5010851;28;1097;-50
2022/09/26 00:13:34;;;;;;;;;;;;;;;17.34;48.36;100709.97;5003333;28;1965;-48
2022/09/26 00:16:00;;;;;;;;;;;;;;;17.18;47.59;100711.94;5016318;28;929;-47
2022/09/26 00:18:25;;;;;;;;;;;;;;;17.78;48.22;100709.22;5016549;28;1172;-48
2022/09/26 00:20:50;;;;;;;;;;;;;;;17.78;48.87;100710.06;5016652;28;1148;-49
2022/09/26 00:23:16;;;;;;;;;;;;;;;17.45;48.11;100706.09;5016714;28;1109;-50
2022/09/26 00:25:48;;;;;;;;;;;;;;;18.23;48.78;100700.97;5016456;28;1112;-51
2022/09/26 00:28:13;;;;;;;;;;;;;;;17.61;49.11;100702.16;5015899;28;1205;-49
2022/09/26 00:30:39;;;;;;;;;;;;;;;17.38;48.22;100706.38;5016216;28;1100;-50
2022/09/26 00:33:04;;;;;;;;;;;;;;;18.06;48.80;100699.47;4998812;28;1124;-49
2022/09/26 00:35:29;;;;;;;;;;;;;;;17.69;49.04;100697.19;5016623;28;1914;-46
2022/09/26 00:37:55;;;;;;;;;;;;;;;17.32;48.36;100695.69;5016671;28;1108;-45
2022/09/26 00:40:26;;;;;;;;;;;;;;;17.17;47.29;100700.13;5015495;28;954;-47
2022/09/26 00:42:53;;;;;;;;;;;;;;;17.89;48.20;100693.47;5000051;28;1116;-52
2022/09/26 00:45:18;;;;;;;;;;;;;;;17.44;48.99;100699.75;4998628;28;1286;-49
2022/09/26 00:47:45;;;;;;;;;;;;;;;17.28;47.84;100692.69;5016082;28;1176;-52
2022/09/26 00:50:16;;;;;;;;;;;;;;;18.38;48.04;100703.63;5015974;28;1097;-49
2022/09/26 00:52:43;;;;;;;;;;;;;;;17.56;48.74;100704.13;5016208;28;915;-49
2022/09/26 00:55:11;;;;;;;;;;;;;;;17.70;48.84;100704.34;5015714;28;1977;-45
2022/09/26 00:57:38;;;;;;;;;;;;;;;15.97;53.88;100692.19;4999508;28;1175;-46
2022/09/26 01:00:05;;;;;;;;;;;;;;;16.05;53.21;100702.63;5016236;28;1172;-47
2022/09/26 01:02:31;;;;;;;;;;;;;;;18.53;49.69;100696.38;4998091;28;1164;-49
2022/09/26 01:04:57;;;;;;;;;;;;;;;17.54;50.48;100695.31;5015952;28;1005;-49
2022/09/26 01:07:23;;;;;;;;;;;;;;;17.24;49.11;100692.41;4995031;28;1295;-43
2022/09/26 01:09:48;;;;;;;;;;;;;;;17.30;49.26;100695.97;5017423;28;1235;-43
2022/09/26 01:12:14;;;;;;;;;;;;;;;17.50;49.59;100697.81;5001961;28;1236;-49
2022/09/26 01:14:39;;;;;;;;;;;;;;;17.21;48.66;100698.47;5019161;28;1914;-47
2022/09/26 01:17:05;;;;;;;;;;;;;;;17.07;47.79;100683.69;5019777;28;1196;-49
2022/09/26 01:19:39;;;;;;;;;;;;;;;17.33;48.36;100683.59;5019296;28;1382;-45
2022/09/26 01:22:17;;;;;;;;;;;;;;;17.64;49.22;100665.00;5001757;28;1458;-49
2022/09/26 01:24:45;;;;;;;;;;;;;;;17.20;48.35;100676.78;5001591;28;1290;-46
2022/09/26 01:27:20;;;;;;;;;;;;;;;17.06;47.57;100674.59;5018937;28;1319;-45
2022/09/26 01:30:04;;;;;;;;;;;;;;;17.94;48.35;100686.06;5019534;28;1306;-49
2022/09/26 01:32:54;;;;;;;;;;;;;;;17.54;49.55;100663.13;5001606;28;1335;-51
2022/09/26 01:35:20;;;;;;;;;;;;;;;17.34;48.10;100664.06;5001822;28;1919;-49
2022/09/26 01:37:54;;;;;;;;;;;;;;;17.12;47.58;100671.84;5019218;28;1212;-48
2022/09/26 01:40:22;;;;;;;;;;;;;;;18.06;48.72;100674.72;5001614;28;1299;-51
2022/09/26 01:43:07;;;;;;;;;;;;;;;17.47;48.57;100664.56;4985347;28;1299;-49
2022/09/26 01:45:42;;;;;;;;;;;;;;;17.17;47.82;100674.59;5019189;28;1242;-52
2022/09/26 01:48:17;;;;;;;;;;;;;;;17.26;48.13;100672.88;4989330;28;1203;-49
2022/09/26 01:50:44;;;;;;;;;;;;;;;17.74;48.81;100672.38;5000040;28;1322;-48
2022/09/26 01:53:24;;;;;;;;;;;;;;;17.38;48.26;100673.41;5015948;28;971;-50
2022/09/26 01:56:01;;;;;;;;;;;;;;;18.30;48.71;100672.03;4995664;28;1914;-48
2022/09/26 01:58:28;;;;;;;;;;;;;;;17.51;48.81;100662.91;4984996;28;2248;-50
2022/09/26 02:00:53;;;;;;;;;;;;;;;17.23;48.00;100660.53;4998527;28;1345;-48
2022/09/26 02:03:20;;;;;;;;;;;;;;;17.55;48.33;100663.97;5000920;28;1350;-49
2022/09/26 02:05:56;;;;;;;;;;;;;;;17.70;48.69;100663.91;4998469;28;1201;-46
2022/09/26 02:08:23;;;;;;;;;;;;;;;17.30;47.92;100654.75;4980738;28;1164;-46
2022/09/26 02:10:53;;;;;;;;;;;;;;;17.51;48.36;100663.72;4982792;28;1246;-50
2022/09/26 02:13:19;;;;;;;;;;;;;;;17.82;48.63;100669.03;5001148;28;1172;-49
2022/09/26 02:15:46;;;;;;;;;;;;;;;17.42;48.27;100658.00;5000509;28;1991;-49
2022/09/26 02:18:22;;;;;;;;;;;;;;;18.32;48.43;100660.75;4984517;28;1176;-47
2022/09/26 02:20:49;;;;;;;;;;;;;;;17.62;48.84;100661.75;5004046;28;1157;-50
2022/09/26 02:23:15;;;;;;;;;;;;;;;17.36;48.06;100663.78;5000592;28;1309;-47
2022/09/26 02:25:40;;;;;;;;;;;;;;;17.25;47.00;100660.25;5018713;28;1152;-46
2022/09/26 02:28:06;;;;;;;;;;;;;;;17.12;46.84;100666.34;5005418;28;1243;-49
2022/09/26 02:30:31;;;;;;;;;;;;;;;17.03;46.20;100653.19;5006822;28;1206;-53
2022/09/26 02:32:58;;;;;;;;;;;;;;;18.01;47.53;100646.41;5016099;28;1333;-49
2022/09/26 02:38:10;;;;;;;;;;;;;;;17.31;47.99;100645.41;5000049;28;1199;-48
2022/09/26 02:40:57;;;;;;;;;;;;;;;17.60;48.36;100650.22;5013387;28;1180;-51
2022/09/26 02:43:23;;;;;;;;;;;;;;;17.27;47.51;100653.38;5016667;28;1164;-53
2022/09/26 02:46:12;;;;;;;;;;;;;;;18.23;48.19;100656.94;5014365;28;1336;-47
2022/09/26 02:48:38;;;;;;;;;;;;;;;14.74;56.20;100653.31;4999635;28;1628;-47
2022/09/26 02:51:29;;;;;;;;;;;;;;;17.45;51.46;100649.16;5014623;28;1118;-46
2022/09/26 02:53:58;;;;;;;;;;;;;;;17.79;50.64;100653.09;5004308;28;1988;-50
2022/09/26 02:56:50;;;;;;;;;;;;;;;17.30;49.52;100660.25;5016457;28;1206;-52
2022/09/26 02:59:21;;;;;;;;;;;;;;;17.74;49.75;100659.47;5000512;28;1161;-53
2022/09/26 03:01:53;;;;;;;;;;;;;;;17.51;49.51;100654.66;4999046;28;1179;-47
2022/09/26 03:04:27;;;;;;;;;;;;;;;17.13;48.88;100648.78;4999813;28;1227;-49
2022/09/26 03:06:53;;;;;;;;;;;;;;;17.09;47.75;100646.56;5016117;28;1136;-51
2022/09/26 03:09:19;;;;;;;;;;;;;;;17.38;48.33;100651.41;5000606;28;1186;-52
2022/09/26 03:11:44;;;;;;;;;;;;;;;17.35;48.84;100642.91;5016700;28;1133;-49
2022/09/26 03:14:10;;;;;;;;;;;;;;;17.10;48.87;100636.41;5016085;28;1894;-51
2022/09/26 03:16:37;;;;;;;;;;;;;;;18.34;48.81;100631.00;5015692;28;1204;-48
2022/09/26 03:19:10;;;;;;;;;;;;;;;14.51;57.48;100627.97;5004401;28;1418;-54
2022/09/26 03:21:36;;;;;;;;;;;;;;;16.61;49.64;100624.16;5016184;28;1286;-54
2022/09/26 03:24:01;;;;;;;;;;;;;;;17.39;50.18;100624.72;5016376;28;1254;-51
2022/09/26 03:26:27;;;;;;;;;;;;;;;17.06;49.61;100619.66;5016106;28;1159;-52
2022/09/26 03:28:59;;;;;;;;;;;;;;;18.30;49.47;100618.94;5015308;28;1150;-52
2022/09/26 03:31:27;;;;;;;;;;;;;;;17.57;49.74;100612.25;5014154;28;1399;-48
2022/09/26 03:34:14;;;;;;;;;;;;;;;17.23;48.79;100626.75;5015817;28;1906;-51
2022/09/26 03:36:39;;;;;;;;;;;;;;;17.02;48.16;100624.06;5016759;28;993;-58
2022/09/26 03:39:07;;;;;;;;;;;;;;;17.52;48.41;100620.56;5014195;28;2302;-51
2022/09/26 03:41:58;;;;;;;;;;;;;;;17.32;48.92;100622.31;5013022;28;1228;-51
2022/09/26 03:44:25;;;;;;;;;;;;;;;17.16;48.23;100615.25;5015447;28;1497;-54
2022/09/26 03:47:09;;;;;;;;;;;;;;;16.97;47.36;100615.88;5017198;28;1030;-51
2022/09/26 03:49:43;;;;;;;;;;;;;;;16.90;46.69;100612.56;5015961;28;1172;-50
2022/09/26 03:52:10;;;;;;;;;;;;;;;18.07;48.34;100609.47;5015102;28;1124;-54
2022/09/26 03:54:36;;;;;;;;;;;;;;;17.35;48.69;100610.75;5017945;28;1917;-52
2022/09/26 03:57:02;;;;;;;;;;;;;;;17.12;47.60;100616.91;5016777;28;1065;-51
2022/09/26 03:59:27;;;;;;;;;;;;;;;16.90;47.10;100612.56;5013515;28;2732;-49
2022/09/26 04:01:53;;;;;;;;;;;;;;;18.11;48.43;100611.34;5014404;28;2202;-48
2022/09/26 04:04:18;;;;;;;;;;;;;;;17.52;48.98;100609.56;5015170;28;2056;-50
2022/09/26 04:06:44;;;;;;;;;;;;;;;17.25;48.21;100599.78;5015284;28;2045;-51
2022/09/26 04:09:10;;;;;;;;;;;;;;;17.09;48.08;100599.88;5015291;28;2120;-51
2022/09/26 04:11:37;;;;;;;;;;;;;;;18.12;48.61;100602.00;5016985;28;1985;-52
2022/09/26 04:14:04;;;;;;;;;;;;;;;17.40;48.70;100602.50;5015475;28;2084;-52
2022/09/26 04:16:32;;;;;;;;;;;;;;;17.18;47.70;100596.53;5014844;28;2089;-52
2022/09/26 04:19:08;;;;;;;;;;;;;;;16.97;47.27;100596.63;5015409;28;1366;-49
2022/09/26 04:21:34;;;;;;;;;;;;;;;16.98;46.30;100606.50;5015025;28;1156;-49
2022/09/26 04:24:00;;;;;;;;;;;;;;;16.89;45.94;100603.53;5015235;28;1175;-50
2022/09/26 04:26:27;;;;;;;;;;;;;;;17.58;48.03;100605.66;5015295;28;1283;-52
2022/09/26 04:28:53;;;;;;;;;;;;;;;17.23;48.46;100597.31;5014855;28;1316;-55
2022/09/26 04:31:20;;;;;;;;;;;;;;;18.94;47.85;100613.34;5014955;28;1387;-46
2022/09/26 04:33:51;;;;;;;;;;;;;;;14.88;57.59;100613.44;5014789;28;2055;-48
2022/09/26 04:36:16;;;;;;;;;;;;;;;17.71;51.56;100613.28;5014597;28;1096;-52
2022/09/26 04:38:42;;;;;;;;;;;;;;;16.48;54.87;100600.03;5014843;28;1435;-48
2022/09/26 04:41:11;;;;;;;;;;;;;;;15.83;54.13;100611.56;5015007;28;1187;-50
2022/09/26 04:43:37;;;;;;;;;;;;;;;17.98;52.19;100611.19;5020143;28;1084;-51
2022/09/26 04:46:22;;;;;;;;;;;;;;;17.50;51.45;100601.59;5018687;28;2537;-50
2022/09/26 04:48:50;;;;;;;;;;;;;;;17.06;49.91;100602.38;5018341;28;1300;-53
2022/09/26 04:51:19;;;;;;;;;;;;;;;17.77;50.70;100603.09;5019147;28;1308;-52
2022/09/26 04:53:46;;;;;;;;;;;;;;;17.52;50.48;100606.81;5018539;28;1909;-50
2022/09/26 04:56:22;;;;;;;;;;;;;;;17.05;49.76;100617.19;5018584;28;1150;-53
2022/09/26 04:58:47;;;;;;;;;;;;;;;17.90;49.89;100605.16;5018923;28;1206;-53
2022/09/26 05:01:14;;;;;;;;;;;;;;;17.36;49.47;100606.06;5006242;28;1222;-53
2022/09/26 05:03:57;;;;;;;;;;;;;;;17.07;48.27;100602.09;5016078;28;1404;-53
2022/09/26 05:06:25;;;;;;;;;;;;;;;17.68;49.19;100608.34;5017892;28;1364;-53
2022/09/26 05:08:52;;;;;;;;;;;;;;;17.17;48.78;100603.16;5018304;28;1167;-52
2022/09/26 05:11:24;;;;;;;;;;;;;;;16.99;48.07;100607.34;5017975;28;1341;-53
2022/09/26 05:13:50;;;;;;;;;;;;;;;17.62;48.66;100595.75;5018913;28;1980;-49
2022/09/26 05:16:17;;;;;;;;;;;;;;;17.47;49.10;100587.59;5003725;28;2052;-47
2022/09/26 05:18:43;;;;;;;;;;;;;;;17.19;48.24;100584.44;5016808;28;1266;-52
2022/09/26 05:21:10;;;;;;;;;;;;;;;17.04;47.64;100585.31;5018262;28;1199;-55
2022/09/26 05:26:23;;;;;;;;;;;;;;;17.73;47.84;100594.56;5018316;28;1316;-55
2022/09/26 05:28:50;;;;;;;;;;;;;;;17.43;48.81;100587.34;5016912;28;1377;-52
2022/09/26 05:31:18;;;;;;;;;;;;;;;17.15;48.22;100589.66;5017364;28;1631;-48
2022/09/26 05:33:45;;;;;;;;;;;;;;;17.04;47.34;100593.56;5018152;28;1256;-50
2022/09/26 05:36:11;;;;;;;;;;;;;;;16.88;47.00;100595.53;5019221;28;1120;-52
2022/09/26 05:38:37;;;;;;;;;;;;;;;17.58;47.80;100602.91;5017902;28;1261;-53
2022/09/26 05:41:03;;;;;;;;;;;;;;;18.39;46.88;100597.09;5017479;28;2082;-52
2022/09/26 05:43:29;;;;;;;;;;;;;;;17.66;48.80;100594.06;5019273;28;1274;-54
2022/09/26 05:45:57;;;;;;;;;;;;;;;17.42;49.34;100603.00;5017523;28;2120;-49
2022/09/26 05:48:26;;;;;;;;;;;;;;;17.27;49.89;100603.09;5017820;28;1273;-52
2022/09/26 05:50:52;;;;;;;;;;;;;;;17.09;50.37;100597.13;5019042;28;1104;-48
2022/09/26 05:53:18;;;;;;;;;;;;;;;16.95;50.88;100601.56;5016470;28;1144;-53
2022/09/26 05:55:47;;;;;;;;;;;;;;;16.87;51.19;100594.72;5024417;28;1921;-54
2022/09/26 05:58:23;;;;;;;;;;;;;;;16.78;51.46;100601.88;5017221;28;1344;-54
2022/09/26 06:01:07;;;;;;;;;;;;;;;16.71;51.60;100601.34;5018609;28;1115;-49
2022/09/26 06:03:33;;;;;;;;;;;;;;;16.61;52.04;100607.69;5017489;28;1362;-51
2022/09/26 06:06:12;;;;;;;;;;;;;;;16.52;52.38;100601.09;5017480;28;1283;-52
2022/09/26 06:08:38;;;;;;;;;;;;;;;16.46;52.44;100604.97;5017365;28;1225;-52
2022/09/26 06:11:26;;;;;;;;;;;;;;;16.39;52.55;100606.06;5018089;28;1072;-52
2022/09/26 06:13:51;;;;;;;;;;;;;;;16.28;52.81;100604.44;5018454;28;1906;-55
2022/09/26 06:16:18;;;;;;;;;;;;;;;16.26;52.91;100601.16;5018556;28;2201;-53
2022/09/26 06:18:43;;;;;;;;;;;;;;;17.58;49.87;100598.22;5017806;28;1061;-55
2022/09/26 06:21:11;;;;;;;;;;;;;;;16.99;51.42;100597.16;5011399;28;1314;-54
2022/09/26 06:23:37;;;;;;;;;;;;;;;16.67;52.26;100608.50;5005407;28;1538;-58
2022/09/26 06:26:07;;;;;;;;;;;;;;;16.54;52.49;100604.41;5000911;28;1139;-52
2022/09/26 06:28:33;;;;;;;;;;;;;;;16.43;52.81;100598.94;5026335;28;1335;-52
2022/09/26 06:30:58;;;;;;;;;;;;;;;16.31;53.22;100601.13;5016516;28;1451;-53
2022/09/26 06:34:04;;;;;;;;;;;;;;;16.36;53.03;100601.13;4957482;29;1981;-51
2022/09/26 06:36:50;;;;;;;;;;;;;;;17.49;50.33;100604.63;4973491;28;1161;-52
2022/09/26 06:39:16;;;;;;;;;;;;;;;16.81;52.29;100595.00;4985585;28;1158;-50
2022/09/26 06:41:44;;;;;;;;;;;;;;;16.57;52.58;100587.38;5016365;28;1265;-52
2022/09/26 06:44:27;;;;;;;;;;;;;;;16.41;53.21;100592.06;5018232;28;2073;-48
2022/09/26 06:47:11;;;;;;;;;;;;;;;16.32;53.38;100588.25;5017862;28;1084;-49
2022/09/26 06:49:38;;;;;;;;;;;;;;;16.23;53.54;100590.75;5006184;28;1363;-51
2022/09/26 06:52:11;;;;;;;;;;;;;;;16.63;52.80;100578.03;4999233;28;1119;-52
2022/09/26 06:54:36;;;;;;;;;;;;;;;17.47;50.32;100579.34;5012483;28;1918;-49
2022/09/26 06:57:02;;;;;;;;;;;;;;;16.80;52.54;100571.38;5011890;28;1587;-49
2022/09/26 06:59:27;;;;;;;;;;;;;;;16.54;52.94;100575.03;4996628;28;1381;-54
2022/09/26 07:02:02;;;;;;;;;;;;;;;16.42;53.44;100577.25;5002715;28;1210;-52
2022/09/26 07:04:52;;;;;;;;;;;;;;;16.33;53.50;100584.41;5016205;28;1290;-58
2022/09/26 07:07:29;;;;;;;;;;;;;;;16.23;53.77;100577.03;5016150;28;1167;-53
2022/09/26 07:09:55;;;;;;;;;;;;;;;16.55;53.37;100570.34;5015997;28;1234;-54
2022/09/26 07:12:51;;;;;;;;;;;;;;;17.44;50.62;100570.56;5016351;28;1131;-50
2022/09/26 07:15:18;;;;;;;;;;;;;;;16.75;52.58;100570.31;5015247;28;2137;-52
2022/09/26 07:17:45;;;;;;;;;;;;;;;16.56;53.14;100572.00;5015915;28;1175;-51
2022/09/26 07:20:30;;;;;;;;;;;;;;;16.43;53.56;100576.16;5017228;28;1190;-54
2022/09/26 07:23:25;;;;;;;;;;;;;;;16.31;53.86;100573.69;4997473;28;1122;-51
2022/09/26 07:25:52;;;;;;;;;;;;;;;16.32;53.94;100578.09;4999371;28;1144;-49
2022/09/26 07:28:18;;;;;;;;;;;;;;;17.68;50.53;100560.78;5024759;28;1320;-54
2022/09/26 07:30:47;;;;;;;;;;;;;;;16.89;52.23;100562.31;5015743;28;1343;-51
2022/09/26 07:33:33;;;;;;;;;;;;;;;16.54;53.46;100568.72;5005752;28;1536;-53
2022/09/26 07:36:04;;;;;;;;;;;;;;;16.49;53.41;100566.00;5000299;28;1985;-54
2022/09/26 07:38:30;;;;;;;;;;;;;;;16.38;53.66;100560.53;5015536;28;1148;-55
2022/09/26 07:40:55;;;;;;;;;;;;;;;16.24;54.13;100559.44;5000219;28;1330;-52
2022/09/26 07:43:21;;;;;;;;;;;;;;;17.01;52.54;100562.00;5002443;28;1369;-52
2022/09/26 07:51:40;;;;;;;;;;;;;;;16.42;53.94;100560.78;4997156;28;915;-52
2022/09/26 07:54:10;;;;;;;;;;;;;;;16.34;54.08;100564.09;5009561;28;1894;-55
2022/09/26 07:56:56;;;;;;;;;;;;;;;16.87;52.99;100560.94;5005845;28;1163;-56
2022/09/26 07:59:44;;;;;;;;;;;;;;;17.22;51.67;100559.97;5016426;28;1124;-55
2022/09/26 08:02:23;;;;;;;;;;;;;;;16.68;53.38;100552.50;5014902;28;1224;-54
2022/09/26 08:04:48;;;;;;;;;;;;;;;16.52;53.67;100548.97;5015337;28;1343;-51
2022/09/26 08:07:15;;;;;;;;;;;;;;;16.42;53.96;100539.69;5015054;28;1218;-51
2022/09/26 08:09:53;;;;;;;;;;;;;;;16.32;54.16;100533.38;5015089;28;1288;-51
2022/09/26 08:12:37;;;;;;;;;;;;;;;17.62;50.74;100530.56;5016432;28;1088;-49
2022/09/26 08:15:29;;;;;;;;;;;;;;;16.82;52.85;100523.34;5004215;28;2550;-56
2022/09/26 08:18:02;;;;;;;;;;;;;;;16.59;53.33;100519.28;5016049;28;1104;-52
2022/09/26 08:20:28;;;;;;;;;;;;;;;16.44;53.71;100514.69;5015257;28;1294;-53
2022/09/26 08:22:54;;;;;;;;;;;;;;;16.39;54.02;100523.75;5005472;28;1104;-50
2022/09/26 08:25:19;;;;;;;;;;;;;;;17.20;52.05;100520.97;5013810;28;1988;-52
2022/09/26 08:27:59;;;;;;;;;;;;;;;17.13;52.27;100520.47;5016303;28;1072;-55
2022/09/26 08:30:26;;;;;;;;;;;;;;;16.71;53.23;100514.31;4998434;28;1203;-55
2022/09/26 08:32:57;;;;;;;;;;;;;;;16.55;53.87;100507.22;4998559;28;1345;-52
2022/09/26 08:35:23;;;;;;;;;;;;;;;16.45;53.78;100494.34;4998723;28;1906;-55
2022/09/26 08:38:09;;;;;;;;;;;;;;;16.36;54.23;100490.56;5005308;28;1161;-54
2022/09/26 08:40:44;;;;;;;;;;;;;;;16.29;54.17;100499.09;5016133;28;1137;-53
2022/09/26 08:43:35;;;;;;;;;;;;;;;17.03;52.49;100499.38;4977088;28;1122;-53
2022/09/26 08:49:31;;;;;;;;;;;;;;;16.72;53.48;100496.75;5015780;28;1105;-52
2022/09/26 08:51:57;;;;;;;;;;;;;;;16.53;53.76;100493.78;4998577;28;1127;-53
2022/09/26 08:54:25;;;;;;;;;;;;;;;16.46;53.91;100479.53;4981644;28;1967;-51
2022/09/26 08:57:00;;;;;;;;;;;;;;;16.42;53.96;100467.47;4998460;28;1124;-54
2022/09/26 08:59:33;;;;;;;;;;;;;;;16.31;54.24;100493.31;4982241;28;1316;-50
2022/09/26 09:02:01;;;;;;;;;;;;;;;17.74;50.87;100499.97;4998482;28;1187;-52
2022/09/26 09:04:40;;;;;;;;;;;;;;;16.93;52.69;100486.50;4998434;28;1221;-52
2022/09/26 09:07:22;;;;;;;;;;;;;;;16.65;53.71;100488.00;4998123;28;1175;-55
2022/09/26 09:09:48;;;;;;;;;;;;;;;16.66;53.98;100481.41;4994960;28;1305;-50
2022/09/26 09:13:07;;;;;;;;;;;;;;;16.47;54.28;100483.13;4982297;28;1176;-57
2022/09/26 09:16:17;;;;;;;;;;;;;;;16.36;54.58;100474.91;4996027;28;2540;-52
2022/09/26 09:19:00;;;;;;;;;;;;;;;16.31;54.75;100476.84;4996883;28;2130;-56
2022/09/26 09:21:59;;;;;;;;;;;;;;;16.22;54.83;100473.88;4997462;28;1112;-57
2022/09/26 09:24:34;;;;;;;;;;;;;;;17.70;51.48;100474.16;5002505;28;971;-55
2022/09/26 09:26:59;;;;;;;;;;;;;;;16.92;53.57;100473.88;5015801;28;1097;-56
2022/09/26 09:29:25;;;;;;;;;;;;;;;16.67;54.13;100471.22;5019161;28;1109;-52
2022/09/26 09:32:11;;;;;;;;;;;;;;;16.49;54.59;100468.00;5011074;28;951;-56
2022/09/26 09:34:56;;;;;;;;;;;;;;;16.41;54.46;100461.19;4996521;28;1910;-57
2022/09/26 09:37:42;;;;;;;;;;;;;;;16.35;54.67;100451.31;5001193;28;1204;-56
2022/09/26 09:40:36;;;;;;;;;;;;;;;16.30;54.68;100445.03;4968775;28;1286;-56
2022/09/26 09:43:03;;;;;;;;;;;;;;;16.20;54.74;100438.47;5019351;28;1104;-54
2022/09/26 09:45:33;;;;;;;;;;;;;;;17.33;52.53;100441.75;5018702;28;1847;-56
2022/09/26 09:47:59;;;;;;;;;;;;;;;17.16;53.03;100442.16;5001630;28;1115;-50
2022/09/26 09:50:28;;;;;;;;;;;;;;;16.75;53.82;100427.53;5018976;28;1435;-51
2022/09/26 09:52:53;;;;;;;;;;;;;;;16.54;54.49;100421.31;5001657;28;1108;-53
2022/09/26 09:55:25;;;;;;;;;;;;;;;16.47;54.75;100414.50;5000891;28;1972;-52
2022/09/26 09:57:51;;;;;;;;;;;;;;;16.35;54.90;100423.88;4972249;28;1143;-53
2022/09/26 10:00:21;;;;;;;;;;;;;;;16.34;54.78;100407.69;4981942;28;1161;-54
2022/09/26 10:03:10;;;;;;;;;;;;;;;16.23;55.27;100424.19;5000131;28;1160;-55
2022/09/26 10:05:37;;;;;;;;;;;;;;;16.18;55.30;100420.66;5000850;28;1171;-52
2022/09/26 10:08:09;;;;;;;;;;;;;;;16.15;55.30;100416.53;5000504;28;1173;-55
2022/09/26 10:11:03;;;;;;;;;;;;;;;17.47;52.41;100419.91;5018467;28;1243;-55
2022/09/26 10:14:02;;;;;;;;;;;;;;;16.95;53.89;100408.50;4962683;28;1914;-57
2022/09/26 10:17:00;;;;;;;;;;;;;;;16.64;54.44;100412.22;5002293;28;2173;-54
2022/09/26 10:19:32;;;;;;;;;;;;;;;16.45;55.22;100416.69;4987400;28;1802;-50
2022/09/26 10:21:58;;;;;;;;;;;;;;;16.38;55.20;100409.59;5000422;28;1370;-55
2022/09/26 10:24:42;;;;;;;;;;;;;;;16.30;55.06;100398.38;4984802;28;1257;-55
2022/09/26 10:27:17;;;;;;;;;;;;;;;16.29;55.29;100394.00;4985002;28;1306;-50
2022/09/26 10:29:43;;;;;;;;;;;;;;;16.20;55.19;100391.84;4985039;28;1153;-50
2022/09/26 10:32:09;;;;;;;;;;;;;;;17.23;53.16;100390.44;4984480;28;1188;-50
2022/09/26 10:34:38;;;;;;;;;;;;;;;17.09;53.58;100377.34;5000697;28;1914;-51
2022/09/26 10:37:23;;;;;;;;;;;;;;;16.71;54.53;100376.22;5000528;28;1111;-48
2022/09/26 10:42:39;;;;;;;;;;;;;;;16.46;55.27;100363.47;5000560;28;1235;-57
2022/09/26 10:45:14;;;;;;;;;;;;;;;16.33;55.21;100368.47;4984030;28;1852;-50
2022/09/26 10:48:03;;;;;;;;;;;;;;;16.37;55.31;100368.72;4977673;28;1085;-51
2022/09/26 10:50:49;;;;;;;;;;;;;;;17.61;52.39;100368.66;5017573;28;1152;-52
2022/09/26 10:53:39;;;;;;;;;;;;;;;16.83;54.42;100365.72;4993419;28;1442;-54
2022/09/26 10:56:09;;;;;;;;;;;;;;;16.66;54.85;100371.59;5000030;28;1914;-51
2022/09/26 10:58:37;;;;;;;;;;;;;;;16.53;55.01;100366.72;5000227;28;1297;-47
2022/09/26 11:01:05;;;;;;;;;;;;;;;16.45;55.22;100367.31;4999896;28;1588;-53
2022/09/26 11:03:40;;;;;;;;;;;;;;;16.34;55.37;100367.38;5000089;28;1172;-49
2022/09/26 11:06:21;;;;;;;;;;;;;;;16.33;55.24;100365.72;5017484;28;1195;-49
2022/09/26 11:08:49;;;;;;;;;;;;;;;16.25;55.41;100369.03;4983476;28;1100;-49
2022/09/26 11:11:41;;;;;;;;;;;;;;;16.24;55.42;100356.44;4986670;28;1197;-49
2022/09/26 11:14:07;;;;;;;;;;;;;;;17.77;52.27;100358.31;4999937;28;1901;-52
2022/09/26 11:16:37;;;;;;;;;;;;;;;16.95;54.45;100364.56;4983964;28;2084;-55
2022/09/26 11:19:21;;;;;;;;;;;;;;;16.70;55.08;100356.16;4980692;28;1356;-53
2022/09/26 11:21:58;;;;;;;;;;;;;;;16.54;55.38;100357.38;4997454;28;1116;-55
2022/09/26 11:24:36;;;;;;;;;;;;;;;16.42;55.47;100360.47;4980843;28;1416;-52
2022/09/26 11:27:22;;;;;;;;;;;;;;;16.43;55.24;100349.19;4980002;28;2071;-55
2022/09/26 11:29:52;;;;;;;;;;;;;;;16.32;55.53;100341.31;4996991;28;1166;-52
2022/09/26 11:32:29;;;;;;;;;;;;;;;16.24;55.56;100331.72;4998454;28;1424;-51
2022/09/26 11:35:01;;;;;;;;;;;;;;;16.18;55.80;100330.13;5016663;28;1905;-55
2022/09/26 11:37:44;;;;;;;;;;;;;;;17.09;54.34;100321.59;4998940;28;1248;-54
2022/09/26 11:40:10;;;;;;;;;;;;;;;17.21;53.98;100318.47;4989077;28;1915;-54
2022/09/26 11:42:41;;;;;;;;;;;;;;;16.71;55.27;100319.38;4999026;28;1393;-46
2022/09/26 11:45:07;;;;;;;;;;;;;;;16.51;55.73;100320.34;4998865;28;1831;-52
2022/09/26 11:48:14;;;;;;;;;;;;;;;16.45;55.58;100315.16;5016683;28;1105;-51
2022/09/26 11:51:06;;;;;;;;;;;;;;;16.33;55.77;100318.25;4989276;28;1116;-51
2022/09/26 11:53:45;;;;;;;;;;;;;;;16.24;56.07;100312.53;5008112;28;1379;-48
2022/09/26 11:56:34;;;;;;;;;;;;;;;17.52;53.54;100316.22;4998426;28;1971;-53
2022/09/26 11:59:22;;;;;;;;;;;;;;;16.94;54.61;100330.75;5003809;28;1696;-49
2022/09/26 12:02:14;;;;;;;;;;;;;;;16.63;55.46;100322.72;5016603;28;2045;-57
2022/09/26 12:04:58;;;;;;;;;;;;;;;16.52;55.80;100310.19;5011890;28;1246;-54
2022/09/26 12:07:42;;;;;;;;;;;;;;;16.46;55.55;100322.31;5016688;28;1184;-53
2022/09/26 12:10:12;;;;;;;;;;;;;;;16.28;55.99;100313.59;5016918;28;1167;-57
2022/09/26 12:12:40;;;;;;;;;;;;;;;16.22;56.26;100303.78;4998312;28;1236;-54
2022/09/26 12:15:08;;;;;;;;;;;;;;;16.18;56.21;100313.66;5016097;28;1977;-54
2022/09/26 12:17:35;;;;;;;;;;;;;;;17.46;53.99;100322.91;5015992;28;1195;-52
2022/09/26 12:20:06;;;;;;;;;;;;;;;17.07;54.72;100312.84;5016589;28;1101;-54
2022/09/26 12:22:40;;;;;;;;;;;;;;;16.67;55.69;100312.81;5016375;28;1100;-49
2022/09/26 12:25:06;;;;;;;;;;;;;;;16.59;55.97;100302.44;5016346;28;1069;-55
2022/09/26 12:27:50;;;;;;;;;;;;;;;16.49;56.08;100302.50;5015688;28;1129;-57
2022/09/26 12:30:18;;;;;;;;;;;;;;;16.32;56.47;100298.22;5015500;28;1180;-55
2022/09/26 12:32:45;;;;;;;;;;;;;;;16.29;56.44;100290.56;5015653;28;1175;-55
2022/09/26 12:35:30;;;;;;;;;;;;;;;16.21;56.52;100288.41;5015744;28;1906;-53
2022/09/26 12:38:05;;;;;;;;;;;;;;;16.58;56.02;100284.34;5015998;28;1120;-56
2022/09/26 12:40:44;;;;;;;;;;;;;;;17.45;54.09;100280.03;4998141;28;1119;-54
2022/09/26 12:43:12;;;;;;;;;;;;;;;16.77;55.73;100274.31;4997449;28;1350;-52
2022/09/26 12:45:47;;;;;;;;;;;;;;;16.57;56.23;100271.72;5015988;28;2024;-52
2022/09/26 12:48:13;;;;;;;;;;;;;;;16.44;56.36;100273.19;5001990;28;1240;-57
2022/09/26 12:50:42;;;;;;;;;;;;;;;16.40;56.65;100277.59;5016021;28;1140;-52
2022/09/26 12:53:20;;;;;;;;;;;;;;;16.34;56.26;100274.09;4998869;28;1123;-51
2022/09/26 12:55:46;;;;;;;;;;;;;;;16.27;56.40;100270.00;4998286;28;2269;-56
2022/09/26 12:58:28;;;;;;;;;;;;;;;16.96;55.66;100279.13;5015619;28;1097;-56
2022/09/26 13:00:56;;;;;;;;;;;;;;;17.43;54.56;100269.31;4998470;28;1148;-52
2022/09/26 13:03:30;;;;;;;;;;;;;;;16.84;56.04;100267.66;5018122;28;1069;-56
2022/09/26 13:05:55;;;;;;;;;;;;;;;16.64;56.63;100269.47;5019877;28;1187;-49
2022/09/26 13:08:39;;;;;;;;;;;;;;;16.48;56.55;100278.91;5019610;28;1187;-55
2022/09/26 13:11:09;;;;;;;;;;;;;;;16.41;56.90;100260.84;5006735;28;1081;-54
2022/09/26 13:13:44;;;;;;;;;;;;;;;16.35;56.56;100261.97;5002640;28;1306;-51
2022/09/26 13:16:35;;;;;;;;;;;;;;;16.28;56.74;100264.22;5020025;28;2124;-53
2022/09/26 13:19:02;;;;;;;;;;;;;;;16.20;56.79;100262.06;5014912;28;1361;-54
2022/09/26 13:21:37;;;;;;;;;;;;;;;16.15;56.77;100253.91;5019078;28;853;-57
2022/09/26 13:24:06;;;;;;;;;;;;;;;16.11;56.84;100247.34;5015452;28;1081;-56
2022/09/26 13:26:32;;;;;;;;;;;;;;;17.25;55.38;100248.91;5019602;28;1136;-56
2022/09/26 13:29:02;;;;;;;;;;;;;;;17.30;55.18;100247.22;5011955;28;1572;-53
2022/09/26 13:31:29;;;;;;;;;;;;;;;16.71;56.54;100247.19;5018870;28;1048;-59
2022/09/26 13:34:04;;;;;;;;;;;;;;;16.62;56.88;100246.16;5033087;28;1214;-56